Flight Track Log - Related Links

Times and Time Zones

All times are in EST time to prevent confusion due to time zone crossing. See the CSN6318 flight status page for this flight to view local times or setup timezone preferences in your user account.

Time Position Orientation Groundspeed Altitude Reporting Facility
EST Latitude Longitude Course Direction KTS MPH feet Rate Location/Type
03:09AM 43.8898 87.5954 101° East  Level Estimated
03:10AM 43.8724 87.7164 101° East  Level Estimated
03:11AM 43.8548 87.8374 101° East  Level Estimated
03:12AM 43.8371 87.9583 101° East  Level Estimated
03:13AM 43.8193 88.0791 102° East  Level Estimated
03:14AM 43.8014 88.1999 102° East  Level Estimated
03:15AM 43.7833 88.3205 102° East  Level Estimated
03:16AM 43.7651 88.4411 102° East  Level Estimated
03:17AM 43.7468 88.5617 102° East  Level Estimated
03:18AM 43.7283 88.6822 102° East  Level Estimated
03:19AM 43.7097 88.8025 102° East  Level Estimated
03:20AM 43.6910 88.9229 102° East  Level Estimated
03:21AM 43.6702 89.0559 102° East  Level Estimated
03:22AM 43.6492 89.1888 102° East  Level Estimated
03:23AM 43.6281 89.3216 102° East  Level Estimated
03:24AM 43.6068 89.4544 102° East  Level Estimated
03:25AM 43.5853 89.5871 103° East  Level Estimated
03:26AM 43.5637 89.7196 103° East  Level Estimated
03:27AM 43.5419 89.8521 103° East  Level Estimated
03:28AM 43.5200 89.9844 103° East  Level Estimated
03:29AM 43.4980 90.1167 103° East  Level Estimated
03:30AM 43.4757 90.2489 103° East  Level Estimated
03:31AM 43.4534 90.3810 103° East  Level Estimated
03:32AM 43.4308 90.5129 103° East  Level Estimated
03:33AM 43.4082 90.6448 103° East  Level Estimated
03:34AM 43.3853 90.7766 103° East  Level Estimated
03:35AM 43.3624 90.9083 103° East  Level Estimated
03:36AM 43.3392 91.0398 104° East  Level Estimated
03:37AM 43.3159 91.1713 104° East  Level Estimated
03:38AM 43.2925 91.3027 104° East  Level Estimated
03:39AM 43.2689 91.4340 104° East  Level Estimated
03:40AM 43.2452 91.5652 104° East  Level Estimated
03:41AM 43.2213 91.6962 104° East  Level Estimated
03:42AM 43.1973 91.8272 104° East  Level Estimated
03:43AM 43.1731 91.9581 104° East  Level Estimated
03:44AM 43.1488 92.0888 104° East  Level Estimated
03:45AM 43.1243 92.2195 104° East  Level Estimated
03:46AM 43.0997 92.3500 104° East  Level Estimated
03:47AM 43.0749 92.4805 105° East  Level Estimated
03:48AM 43.0500 92.6108 105° East  Level Estimated
03:49AM 43.0249 92.7411 105° East  Level Estimated
03:50AM 42.9997 92.8712 105° East  Level Estimated
03:51AM 42.9743 93.0012 105° East  Level Estimated
03:52AM 42.9488 93.1311 105° East  Level Estimated
03:53AM 42.9232 93.2609 105° East  Level Estimated
03:54AM 42.8974 93.3906 105° East  Level Estimated
03:55AM 42.8714 93.5202 105° East  Level Estimated
03:56AM 42.8453 93.6497 105° East  Level Estimated
03:57AM 42.8414 93.6692 105° East  Level Estimated
03:58AM 42.8414 93.6692 246° West  Level Estimated
03:59AM 42.8414 93.6692 246° West  Level Estimated
04:00AM 42.8414 93.6692 246° West  Level Estimated
04:01AM 42.8414 93.6692 246° West  Level Estimated
04:02AM 42.8414 93.6692 246° West  Level Estimated
04:03AM 42.8414 93.6692 246° West  Level Estimated
04:04AM 42.8414 93.6692 246° West  Level Estimated
04:05AM 42.8414 93.6692 246° West  Level Estimated
04:06AM 42.8414 93.6692 246° West  Level Estimated
04:07AM 42.8414 93.6692 246° West  Level Estimated
04:08AM 42.8414 93.6692 246° West  Level Estimated
04:09AM 42.8414 93.6692 246° West  Level Estimated
04:10AM 42.8414 93.6692 246° West  Level Estimated

Login

Don't have an account? Register now (free) for customized features, flight alerts, and more!